createdAt,value
2022-09-13T00:02:16.822Z,12.69
2022-09-13T00:04:44.480Z,12.69
2022-09-13T00:07:12.581Z,12.67
2022-09-13T00:09:40.202Z,12.61
2022-09-13T00:12:08.581Z,12.56
2022-09-13T00:14:36.240Z,12.54
2022-09-13T00:17:04.422Z,12.50
2022-09-13T00:19:33.751Z,12.40
2022-09-13T00:22:01.864Z,12.39
2022-09-13T00:24:29.511Z,12.34
2022-09-13T00:26:57.768Z,12.28
2022-09-13T00:29:25.532Z,12.26
2022-09-13T00:31:53.907Z,12.28
2022-09-13T00:34:21.527Z,12.28
2022-09-13T00:36:50.844Z,12.28
2022-09-13T00:39:18.478Z,12.27
2022-09-13T00:41:46.116Z,12.26
2022-09-13T00:44:50.783Z,12.24
2022-09-13T00:47:22.763Z,12.23
2022-09-13T00:49:53.875Z,12.22
2022-09-13T00:52:25.655Z,12.27
2022-09-13T00:54:59.506Z,12.23
2022-09-13T00:57:28.265Z,12.23
2022-09-13T01:00:01.548Z,12.24
2022-09-13T01:02:30.741Z,12.23
2022-09-13T01:04:58.472Z,12.20
2022-09-13T01:07:28.170Z,12.17
2022-09-13T01:09:55.818Z,12.14
2022-09-13T01:12:33.518Z,12.15
2022-09-13T01:15:05.112Z,12.13
2022-09-13T01:17:34.353Z,12.16
2022-09-13T01:20:03.908Z,12.16
2022-09-13T01:23:13.243Z,12.17
2022-09-13T01:26:25.276Z,12.17
2022-09-13T01:29:30.231Z,12.20
2022-09-13T01:32:10.459Z,12.22
2022-09-13T01:34:54.255Z,12.21
2022-09-13T01:37:38.973Z,12.19
2022-09-13T01:40:17.463Z,12.17
2022-09-13T01:43:08.387Z,12.10
2022-09-13T01:45:46.709Z,12.06
2022-09-13T01:48:22.485Z,12.04
2022-09-13T01:50:59.904Z,11.96
2022-09-13T01:53:36.763Z,11.84
2022-09-13T01:56:10.716Z,11.82
2022-09-13T01:58:42.855Z,11.78
2022-09-13T02:01:18.170Z,11.75
2022-09-13T02:03:53.750Z,11.75
2022-09-13T02:06:25.633Z,11.80
2022-09-13T02:08:57.593Z,11.84
2022-09-13T02:11:25.902Z,11.83
2022-09-13T02:13:59.947Z,11.71
2022-09-13T02:16:31.846Z,11.67
2022-09-13T02:19:08.051Z,11.66
2022-09-13T02:21:40.582Z,11.69
2022-09-13T02:24:12.919Z,11.74
2022-09-13T02:26:42.897Z,11.76
2022-09-13T02:29:16.895Z,11.74
2022-09-13T02:31:48.783Z,11.75
2022-09-13T02:34:22.482Z,11.63
2022-09-13T02:36:54.182Z,11.59
2022-09-13T02:39:26.387Z,11.46
2022-09-13T02:41:57.735Z,11.56
2022-09-13T02:44:34.451Z,11.53
2022-09-13T02:47:23.131Z,11.59
2022-09-13T02:49:58.691Z,11.54
2022-09-13T02:52:38.188Z,11.42
2022-09-13T02:55:16.560Z,11.38
2022-09-13T02:57:53.131Z,11.29
2022-09-13T03:00:20.800Z,11.24
2022-09-13T03:02:50.521Z,11.18
2022-09-13T03:05:19.487Z,11.21
2022-09-13T03:07:47.880Z,11.24
2022-09-13T03:10:16.991Z,11.29
2022-09-13T03:13:19.488Z,11.38
2022-09-13T03:16:00.410Z,11.40
2022-09-13T03:18:44.970Z,11.42
2022-09-13T03:21:29.212Z,11.37
2022-09-13T03:24:09.904Z,11.41
2022-09-13T03:26:46.766Z,11.42
2022-09-13T03:29:31.732Z,11.36
2022-09-13T03:32:07.949Z,11.36
2022-09-13T03:34:49.015Z,11.26
2022-09-13T03:37:26.888Z,11.26
2022-09-13T03:40:00.588Z,11.21
2022-09-13T03:42:35.954Z,11.20
2022-09-13T03:45:06.107Z,11.12
2022-09-13T03:47:37.608Z,11.11
2022-09-13T03:50:08.328Z,11.01
2022-09-13T03:52:41.241Z,11.01
2022-09-13T03:55:11.206Z,10.93
2022-09-13T03:57:39.107Z,10.89
2022-09-13T04:00:07.739Z,10.81
2022-09-13T04:02:39.492Z,10.94
2022-09-13T04:05:07.817Z,10.96
2022-09-13T04:07:37.107Z,10.92
2022-09-13T04:10:06.083Z,10.86
2022-09-13T04:12:34.040Z,10.86
2022-09-13T04:15:01.847Z,10.87
2022-09-13T04:17:29.770Z,10.92
2022-09-13T04:19:57.715Z,10.91
2022-09-13T04:22:25.320Z,10.95
2022-09-13T04:24:57.195Z,10.98
2022-09-13T04:27:26.764Z,11.02
2022-09-13T04:29:54.370Z,11.03
2022-09-13T04:32:22.347Z,11.04
2022-09-13T04:34:49.965Z,11.08
2022-09-13T04:37:18.082Z,11.09
2022-09-13T04:39:45.716Z,11.17
2022-09-13T04:42:14.828Z,11.19
2022-09-13T04:44:43.871Z,11.17
2022-09-13T04:47:11.791Z,11.22
2022-09-13T04:49:39.988Z,11.24
2022-09-13T04:52:08.139Z,11.24
2022-09-13T04:54:35.774Z,11.26
2022-09-13T04:57:03.672Z,11.21
2022-09-13T04:59:33.351Z,11.23
2022-09-13T05:02:01.096Z,11.23
2022-09-13T05:04:28.798Z,11.30
2022-09-13T05:06:56.414Z,11.33
2022-09-13T05:09:24.412Z,11.39
2022-09-13T05:11:52.042Z,11.50
2022-09-13T05:14:19.692Z,11.59
2022-09-13T05:16:48.673Z,11.65
2022-09-13T05:19:16.355Z,11.74
2022-09-13T05:21:43.955Z,11.78
2022-09-13T05:24:12.549Z,11.79
2022-09-13T05:26:40.322Z,11.84
2022-09-13T05:29:08.099Z,11.86
2022-09-13T05:31:37.829Z,11.85
2022-09-13T05:34:10.647Z,11.75
2022-09-13T05:36:38.584Z,11.72
2022-09-13T05:41:55.913Z,11.55
2022-09-13T05:44:23.873Z,11.60
2022-09-13T05:46:51.582Z,11.73
2022-09-13T05:49:20.923Z,11.77
2022-09-13T05:51:48.544Z,11.84
2022-09-13T05:54:16.710Z,12.04
2022-09-13T05:56:44.316Z,12.10
2022-09-13T05:59:15.960Z,12.21
2022-09-13T06:01:43.637Z,12.32
2022-09-13T06:04:12.798Z,12.41
2022-09-13T06:06:42.133Z,12.41
2022-09-13T06:09:12.574Z,12.51
2022-09-13T06:11:40.279Z,12.65
2022-09-13T06:14:08.404Z,12.77
2022-09-13T06:16:36.788Z,12.81
2022-09-13T06:19:05.044Z,13.04
2022-09-13T06:21:32.724Z,13.18
2022-09-13T06:24:02.138Z,13.33
2022-09-13T06:26:29.819Z,13.59
2022-09-13T06:28:58.826Z,13.80
2022-09-13T06:31:28.167Z,13.98
2022-09-13T06:33:58.200Z,14.22
2022-09-13T06:36:26.338Z,14.39
2022-09-13T06:38:55.531Z,14.62
2022-09-13T06:41:27.136Z,14.83
2022-09-13T06:43:56.519Z,15.04
2022-09-13T06:46:25.485Z,15.26
2022-09-13T06:48:54.439Z,15.36
2022-09-13T06:51:24.229Z,15.62
2022-09-13T06:53:56.441Z,15.91
2022-09-13T06:56:27.239Z,16.24
2022-09-13T06:58:57.902Z,16.50
2022-09-13T07:01:28.046Z,16.72
2022-09-13T07:04:01.321Z,16.91
2022-09-13T07:06:31.080Z,17.18
2022-09-13T07:09:02.238Z,17.27
2022-09-13T07:11:33.516Z,17.33
2022-09-13T07:14:01.960Z,17.43
2022-09-13T07:16:31.364Z,17.57
2022-09-13T07:19:01.328Z,17.62
2022-09-13T07:21:30.027Z,17.82
2022-09-13T07:23:58.548Z,17.81
2022-09-13T07:26:27.888Z,18.05
2022-09-13T07:29:00.778Z,18.22
2022-09-13T07:31:30.437Z,18.34
2022-09-13T07:34:00.263Z,18.44
2022-09-13T07:36:29.550Z,18.45
2022-09-13T07:38:58.563Z,18.56
2022-09-13T07:41:28.330Z,18.58
2022-09-13T07:43:58.899Z,18.78
2022-09-13T07:46:28.796Z,18.86
2022-09-13T07:48:57.988Z,19.02
2022-09-13T07:51:27.655Z,19.22
2022-09-13T07:53:57.732Z,19.43
2022-09-13T07:56:28.851Z,19.59
2022-09-13T07:59:00.846Z,19.77
2022-09-13T08:01:30.948Z,19.87
2022-09-13T08:04:00.513Z,20.02
2022-09-13T08:06:29.863Z,20.22
2022-09-13T08:08:57.834Z,20.36
2022-09-13T08:11:29.715Z,20.45
2022-09-13T08:13:58.983Z,20.55
2022-09-13T08:16:28.981Z,20.67
2022-09-13T08:18:59.006Z,20.90
2022-09-13T08:21:27.653Z,21.15
2022-09-13T08:23:57.050Z,21.28
2022-09-13T08:26:25.491Z,21.46
2022-09-13T08:28:59.101Z,21.66
2022-09-13T08:31:27.602Z,21.76
2022-09-13T08:33:55.973Z,21.81
2022-09-13T08:36:25.207Z,21.83
2022-09-13T08:38:54.453Z,21.70
2022-09-13T08:41:35.010Z,21.85
2022-09-13T08:44:11.124Z,21.88
2022-09-13T08:46:42.783Z,22.00
2022-09-13T08:49:18.503Z,22.04
2022-09-13T08:51:49.694Z,22.13
2022-09-13T08:54:19.306Z,21.89
2022-09-13T08:56:53.989Z,22.12
2022-09-13T08:59:42.153Z,22.53
2022-09-13T09:02:21.912Z,23.02
2022-09-13T09:04:56.339Z,23.04
2022-09-13T09:07:27.882Z,22.83
2022-09-13T09:09:59.274Z,23.00
2022-09-13T09:12:35.258Z,22.95
2022-09-13T09:15:14.775Z,23.36
2022-09-13T09:17:48.906Z,23.76
2022-09-13T09:20:28.039Z,23.49
2022-09-13T09:22:56.709Z,23.81
2022-09-13T09:25:27.136Z,23.69
2022-09-13T09:27:55.172Z,23.93
2022-09-13T09:30:24.455Z,24.17
2022-09-13T09:33:07.070Z,24.74
2022-09-13T09:35:47.607Z,25.03
2022-09-13T09:38:43.956Z,25.33
2022-09-13T09:41:18.415Z,25.50
2022-09-13T09:43:52.774Z,25.22
2022-09-13T09:46:29.188Z,25.30
2022-09-13T09:49:00.166Z,25.92
2022-09-13T09:51:30.202Z,26.19
2022-09-13T09:54:05.125Z,26.43
2022-09-13T09:56:34.203Z,26.21
2022-09-13T09:59:02.564Z,26.40
2022-09-13T10:01:33.767Z,26.81
2022-09-13T10:04:08.633Z,27.40
2022-09-13T10:06:39.268Z,27.94
2022-09-13T10:09:15.878Z,28.33
2022-09-13T10:11:50.259Z,28.56
2022-09-13T10:14:42.051Z,28.70
2022-09-13T10:17:19.676Z,28.86
2022-09-13T10:19:59.280Z,29.20
2022-09-13T10:22:27.614Z,28.98
2022-09-13T10:24:55.940Z,29.53
2022-09-13T10:27:33.864Z,29.03
2022-09-13T10:30:04.982Z,28.80
2022-09-13T10:32:34.977Z,29.60
2022-09-13T10:35:10.458Z,29.95
2022-09-13T10:37:43.792Z,29.99
2022-09-13T10:40:20.980Z,30.25
2022-09-13T10:42:54.097Z,30.06
2022-09-13T10:45:26.650Z,30.13
2022-09-13T10:47:59.244Z,30.48
2022-09-13T10:50:28.449Z,29.56
2022-09-13T10:52:57.386Z,29.37
2022-09-13T10:55:40.755Z,29.32
2022-09-13T10:58:19.922Z,29.11
2022-09-13T11:01:16.284Z,28.83
2022-09-13T11:03:59.697Z,28.81
2022-09-13T11:06:33.971Z,29.36
2022-09-13T11:09:09.927Z,29.78
2022-09-13T11:11:44.521Z,29.99
2022-09-13T11:14:23.227Z,29.53
2022-09-13T11:17:01.476Z,29.07
2022-09-13T11:19:46.684Z,28.75
2022-09-13T11:22:28.434Z,29.16
2022-09-13T11:25:07.404Z,29.25
2022-09-13T11:27:44.388Z,29.29
2022-09-13T11:30:17.059Z,29.15
2022-09-13T11:33:05.980Z,29.39
2022-09-13T11:35:59.358Z,29.29
2022-09-13T11:38:37.705Z,29.24
2022-09-13T11:41:14.962Z,28.09
2022-09-13T11:43:55.867Z,28.07
2022-09-13T11:46:30.698Z,28.49
2022-09-13T11:49:31.411Z,27.77
2022-09-13T11:52:10.719Z,28.41
2022-09-13T11:55:02.023Z,28.31
2022-09-13T11:57:35.478Z,28.46
2022-09-13T12:00:08.434Z,27.72
2022-09-13T12:02:43.868Z,26.96
2022-09-13T12:05:24.558Z,27.41
2022-09-13T12:07:58.841Z,26.95
2022-09-13T12:10:30.874Z,26.70
2022-09-13T12:13:01.730Z,27.22
2022-09-13T12:15:37.162Z,27.19
2022-09-13T12:18:12.800Z,26.90
2022-09-13T12:20:45.310Z,27.09
2022-09-13T12:23:24.998Z,26.87
2022-09-13T12:25:57.225Z,26.99
2022-09-13T12:28:29.060Z,26.67
2022-09-13T12:31:01.447Z,26.71
2022-09-13T12:33:29.480Z,26.85
2022-09-13T12:36:16.991Z,27.31
2022-09-13T12:39:11.927Z,26.79
2022-09-13T12:41:51.052Z,26.40
2022-09-13T12:44:35.990Z,26.94
2022-09-13T12:47:28.791Z,26.79
2022-09-13T12:50:41.990Z,26.46
2022-09-13T12:53:14.396Z,26.78
2022-09-13T12:55:59.790Z,26.78
2022-09-13T12:58:46.636Z,27.07
2022-09-13T13:01:17.942Z,26.85
2022-09-13T13:03:54.287Z,26.88
2022-09-13T13:06:29.186Z,26.98
2022-09-13T13:09:00.403Z,27.03
2022-09-13T13:11:41.533Z,26.98
2022-09-13T13:14:29.715Z,27.23
2022-09-13T13:17:31.193Z,27.27
2022-09-13T13:19:58.794Z,27.36
2022-09-13T13:22:52.727Z,27.44
2022-09-13T13:25:33.637Z,27.38
2022-09-13T13:28:03.019Z,27.27
2022-09-13T13:30:56.335Z,27.41
2022-09-13T13:33:29.561Z,27.42
2022-09-13T13:35:57.264Z,27.47
2022-09-13T13:38:43.142Z,27.54
2022-09-13T13:41:39.794Z,27.63
2022-09-13T13:44:45.200Z,27.65
2022-09-13T13:47:46.908Z,27.55
2022-09-13T13:50:18.592Z,27.70
2022-09-13T13:53:03.321Z,27.73
2022-09-13T13:55:42.382Z,27.36
2022-09-13T13:58:28.223Z,27.26
2022-09-13T14:00:56.914Z,27.44
2022-09-13T14:03:49.710Z,27.65
2022-09-13T14:06:24.357Z,27.70
2022-09-13T14:09:03.375Z,27.81
2022-09-13T14:11:43.675Z,27.87
2022-09-13T14:14:28.314Z,28.00
2022-09-13T14:17:15.601Z,28.03
2022-09-13T14:19:45.321Z,28.02
2022-09-13T14:22:17.783Z,28.08
2022-09-13T14:24:48.677Z,28.11
2022-09-13T14:27:20.461Z,28.15
2022-09-13T14:29:50.728Z,28.15
2022-09-13T14:32:22.617Z,28.15
2022-09-13T14:34:59.011Z,28.13
2022-09-13T14:37:30.965Z,28.08
2022-09-13T14:40:01.966Z,28.02
2022-09-13T14:42:40.161Z,28.00
2022-09-13T14:45:13.532Z,27.96
2022-09-13T14:47:49.947Z,28.00
2022-09-13T14:50:21.763Z,27.94
2022-09-13T14:52:54.352Z,27.94
2022-09-13T14:55:27.455Z,27.90
2022-09-13T14:58:02.124Z,27.80
2022-09-13T15:00:30.766Z,27.73
2022-09-13T15:03:02.705Z,27.62
2022-09-13T15:05:33.360Z,27.61
2022-09-13T15:08:45.652Z,27.59
2022-09-13T15:11:17.688Z,27.60
2022-09-13T15:13:46.039Z,27.55
2022-09-13T15:16:27.451Z,27.47
2022-09-13T15:19:16.880Z,27.33
2022-09-13T15:21:45.584Z,27.21
2022-09-13T15:24:23.036Z,27.16
2022-09-13T15:27:03.602Z,27.07
2022-09-13T15:29:34.724Z,27.05
2022-09-13T15:32:03.910Z,27.07
2022-09-13T15:34:31.920Z,27.06
2022-09-13T15:37:10.068Z,27.09
2022-09-13T15:39:50.505Z,27.10
2022-09-13T15:42:19.211Z,27.11
2022-09-13T15:44:46.838Z,27.05
2022-09-13T15:47:18.599Z,26.99
2022-09-13T15:49:50.967Z,26.94
2022-09-13T15:52:19.761Z,26.88
2022-09-13T15:54:50.826Z,26.87
2022-09-13T15:57:22.337Z,26.86
2022-09-13T15:59:50.107Z,26.87
2022-09-13T16:02:21.169Z,26.81
2022-09-13T16:04:49.528Z,26.72
2022-09-13T16:07:17.742Z,26.62
2022-09-13T16:09:46.013Z,26.51
2022-09-13T16:12:16.172Z,26.24
2022-09-13T16:14:43.858Z,26.20
2022-09-13T16:17:15.198Z,26.13
2022-09-13T16:19:43.263Z,25.99
2022-09-13T16:22:12.949Z,25.88
2022-09-13T16:24:40.983Z,25.74
2022-09-13T16:27:10.715Z,25.71
2022-09-13T16:29:39.906Z,25.66
2022-09-13T16:32:07.819Z,25.53
2022-09-13T16:34:35.670Z,25.40
2022-09-13T16:37:04.515Z,25.31
2022-09-13T16:39:32.164Z,25.24
2022-09-13T16:42:00.316Z,25.20
2022-09-13T16:44:27.926Z,25.15
2022-09-13T16:46:57.724Z,25.11
2022-09-13T16:49:26.327Z,25.03
2022-09-13T16:51:54.054Z,24.94
2022-09-13T16:54:21.679Z,24.86
2022-09-13T16:56:49.283Z,24.81
2022-09-13T16:59:17.262Z,24.76
2022-09-13T17:01:44.981Z,24.68
2022-09-13T17:04:14.563Z,24.59
2022-09-13T17:06:42.205Z,24.50
2022-09-13T17:09:10.421Z,24.43
2022-09-13T17:11:39.740Z,24.38
2022-09-13T17:14:09.946Z,24.35
2022-09-13T17:16:39.680Z,24.30
2022-09-13T17:19:13.208Z,24.23
2022-09-13T17:21:42.575Z,24.16
2022-09-13T17:24:13.537Z,24.08
2022-09-13T17:26:41.595Z,24.03
2022-09-13T17:29:10.057Z,23.97
2022-09-13T17:31:37.739Z,23.90
2022-09-13T17:34:06.178Z,23.75
2022-09-13T17:36:33.791Z,23.64
2022-09-13T17:39:03.534Z,23.48
2022-09-13T17:41:31.184Z,23.27
2022-09-13T17:44:00.395Z,23.09
2022-09-13T17:46:30.106Z,22.48
2022-09-13T17:49:00.230Z,22.51
2022-09-13T17:51:30.119Z,22.21
2022-09-13T17:54:00.884Z,21.90
2022-09-13T17:56:31.996Z,21.80
2022-09-13T17:59:09.836Z,21.68
2022-09-13T18:01:39.571Z,21.55
2022-09-13T18:04:08.535Z,21.52
2022-09-13T18:06:36.620Z,21.51
2022-09-13T18:09:05.551Z,21.24
2022-09-13T18:11:34.526Z,21.15
2022-09-13T18:14:02.625Z,21.08
2022-09-13T18:16:31.337Z,21.05
2022-09-13T18:19:02.145Z,21.56
2022-09-13T18:21:30.319Z,21.57
2022-09-13T18:23:59.985Z,21.57
2022-09-13T18:26:29.911Z,21.52
2022-09-13T18:29:01.759Z,21.44
2022-09-13T18:31:31.199Z,21.41
2022-09-13T18:34:01.621Z,21.41
2022-09-13T18:36:30.834Z,21.40
2022-09-13T18:38:58.919Z,21.40
2022-09-13T18:41:31.159Z,21.38
2022-09-13T18:44:00.445Z,21.01
2022-09-13T18:46:31.716Z,20.61
2022-09-13T18:49:00.156Z,20.45
2022-09-13T18:51:29.932Z,20.35
2022-09-13T18:53:59.445Z,20.27
2022-09-13T18:56:27.588Z,20.74
2022-09-13T18:58:56.883Z,20.77
2022-09-13T19:01:28.449Z,20.76
2022-09-13T19:03:59.079Z,20.74
2022-09-13T19:06:28.987Z,20.70
2022-09-13T19:08:58.134Z,20.67
2022-09-13T19:11:45.722Z,20.58
2022-09-13T19:14:16.055Z,20.56
2022-09-13T19:16:45.339Z,20.53
2022-09-13T19:19:13.452Z,20.50
2022-09-13T19:21:41.198Z,20.43
2022-09-13T19:24:16.299Z,20.40
2022-09-13T19:26:46.063Z,20.38
2022-09-13T19:29:15.511Z,20.34
2022-09-13T19:31:47.503Z,20.31
2022-09-13T19:34:17.355Z,20.25
2022-09-13T19:36:45.559Z,20.01
2022-09-13T19:39:13.787Z,20.00
2022-09-13T19:41:42.405Z,19.98
2022-09-13T19:44:12.370Z,19.89
2022-09-13T19:46:41.986Z,19.82
2022-09-13T19:49:14.436Z,19.76
2022-09-13T19:51:46.447Z,19.67
2022-09-13T19:54:18.680Z,19.59
2022-09-13T19:56:46.821Z,19.53
2022-09-13T19:59:16.714Z,19.48
2022-09-13T20:01:45.965Z,19.45
2022-09-13T20:04:17.067Z,19.39
2022-09-13T20:06:46.632Z,19.38
2022-09-13T20:09:16.357Z,19.34
2022-09-13T20:11:45.373Z,19.32
2022-09-13T20:14:14.711Z,19.33
2022-09-13T20:16:44.029Z,19.33
2022-09-13T20:19:39.785Z,19.25
2022-09-13T20:22:07.302Z,19.23
2022-09-13T20:24:34.926Z,19.17
2022-09-13T20:27:02.857Z,18.93
2022-09-13T20:29:31.425Z,18.77
2022-09-13T20:31:59.901Z,18.89
2022-09-13T20:34:29.371Z,18.75
2022-09-13T20:36:57.045Z,18.76
2022-09-13T20:39:24.654Z,18.67
2022-09-13T20:41:52.413Z,18.64
2022-09-13T20:44:20.044Z,18.64
2022-09-13T20:46:47.659Z,18.66
2022-09-13T20:49:15.319Z,18.66
2022-09-13T20:51:45.997Z,18.70
2022-09-13T20:54:13.630Z,18.74
2022-09-13T20:56:41.692Z,18.75
2022-09-13T20:59:10.050Z,18.78
2022-09-13T21:01:37.706Z,18.77
2022-09-13T21:04:05.862Z,18.77
2022-09-13T21:06:40.002Z,18.78
2022-09-13T21:09:07.994Z,18.79
2022-09-13T21:11:38.545Z,18.79
2022-09-13T21:14:08.337Z,18.82
2022-09-13T21:16:37.942Z,18.80
2022-09-13T21:19:06.339Z,18.59
2022-09-13T21:21:37.150Z,18.57
2022-09-13T21:24:08.606Z,18.73
2022-09-13T21:26:39.950Z,18.74
2022-09-13T21:29:07.562Z,18.81
2022-09-13T21:31:35.762Z,18.73
2022-09-13T21:34:05.498Z,18.61
2022-09-13T21:36:35.459Z,18.61
2022-09-13T21:39:03.420Z,18.67
2022-09-13T21:41:31.998Z,18.68
2022-09-13T21:44:01.264Z,18.71
2022-09-13T21:46:31.846Z,18.80
2022-09-13T21:49:01.529Z,18.81
2022-09-13T21:51:31.258Z,18.82
2022-09-13T21:54:02.114Z,18.83
2022-09-13T21:56:31.975Z,18.79
2022-09-13T21:59:02.767Z,18.81
2022-09-13T22:01:32.698Z,18.80
2022-09-13T22:04:01.323Z,18.76
2022-09-13T22:06:33.542Z,18.80
2022-09-13T22:09:03.729Z,18.85
2022-09-13T22:11:33.240Z,18.89
2022-09-13T22:14:02.495Z,18.98
2022-09-13T22:16:33.732Z,19.01
2022-09-13T22:19:08.488Z,18.72
2022-09-13T22:21:40.582Z,18.80
2022-09-13T22:24:09.579Z,18.81
2022-09-13T22:26:39.914Z,18.82
2022-09-13T22:29:09.708Z,18.80
2022-09-13T22:31:40.097Z,18.80
2022-09-13T22:34:11.015Z,18.80
2022-09-13T22:36:38.968Z,18.79
2022-09-13T22:39:06.987Z,18.79
2022-09-13T22:41:35.456Z,18.78
2022-09-13T22:44:04.282Z,18.78
2022-09-13T22:46:34.587Z,18.80
2022-09-13T22:49:03.005Z,18.86
2022-09-13T22:51:30.729Z,18.82
2022-09-13T22:54:00.530Z,18.77
2022-09-13T22:56:32.909Z,18.76
2022-09-13T22:59:02.450Z,18.74
2022-09-13T23:01:31.736Z,18.79
2022-09-13T23:04:02.599Z,18.85
2022-09-13T23:06:30.523Z,18.91
2022-09-13T23:09:00.728Z,18.86
2022-09-13T23:11:30.179Z,18.73
2022-09-13T23:14:02.014Z,18.57
2022-09-13T23:16:32.046Z,18.45
2022-09-13T23:19:02.278Z,18.37
2022-09-13T23:21:32.523Z,18.43
2022-09-13T23:24:01.931Z,18.45
2022-09-13T23:26:29.856Z,18.47
2022-09-13T23:29:00.185Z,18.48
2022-09-13T23:31:29.646Z,18.50
2022-09-13T23:34:02.086Z,18.53
2022-09-13T23:36:34.552Z,18.58
2022-09-13T23:39:03.837Z,18.64
2022-09-13T23:41:33.121Z,18.70
2022-09-13T23:44:00.973Z,18.71
2022-09-13T23:46:29.005Z,18.60
2022-09-13T23:48:57.502Z,18.45
2022-09-13T23:51:27.297Z,18.40
2022-09-13T23:53:58.511Z,18.49
2022-09-13T23:56:27.801Z,18.50
2022-09-13T23:58:57.586Z,18.53
